Time;durP1;ratioP1;P1;durP2;ratioP2;P2;SDS_P1;SDS_P2;PMS_P1;PMS_P2;Temp;Humidity;BMP_temperature;BMP_pressure;BME280_temperature;BME280_humidity;BME280_pressure;Samples;Min_cycle;Max_cycle;Signal;HPM_P1;HPM_P2
2024/01/14 00:00:37;;;;;;;78.38;33.05;;;;;;;1.49;74.41;100115.66;4994203;28;20057;-79
2024/01/14 00:03:04;;;;;;;91.67;37.10;;;;;;;1.47;74.76;100103.47;4996425;28;20041;-78
2024/01/14 00:05:29;;;;;;;79.85;35.35;;;;;;;1.46;74.62;100122.47;4992736;28;20054;-78
2024/01/14 00:07:56;;;;;;;79.80;35.07;;;;;;;1.45;74.66;100105.13;4999274;28;20172;-79
2024/01/14 00:10:22;;;;;;;79.17;33.30;;;;;;;1.45;75.39;100118.09;5008136;28;20265;-77
2024/01/14 00:12:47;;;;;;;78.63;33.58;;;;;;;1.47;75.46;100106.06;5010042;28;20450;-78
2024/01/14 00:15:14;;;;;;;80.30;33.07;;;;;;;1.48;75.58;100107.81;5009742;28;20546;-79
2024/01/14 00:17:40;;;;;;;79.55;32.63;;;;;;;1.50;75.09;100107.03;5009956;28;20022;-78
2024/01/14 00:20:07;;;;;;;74.00;30.98;;;;;;;1.50;75.00;100093.16;5010004;28;20088;-78
2024/01/14 00:22:32;;;;;;;73.68;32.38;;;;;;;1.50;75.15;100083.69;5009959;28;20042;-79
2024/01/14 00:24:58;;;;;;;78.33;31.77;;;;;;;1.51;75.03;100085.44;5000860;28;20643;-78
2024/01/14 00:27:23;;;;;;;76.93;30.50;;;;;;;1.51;74.93;100081.94;4992594;28;20030;-78
2024/01/14 00:29:49;;;;;;;63.80;28.77;;;;;;;1.51;75.35;100071.56;4994068;28;20092;-79
2024/01/14 00:32:15;;;;;;;73.22;31.85;;;;;;;1.49;75.03;100078.44;4994272;28;20414;-78
2024/01/14 00:34:40;;;;;;;65.63;29.80;;;;;;;1.45;74.63;100061.91;4994171;28;20045;-78
2024/01/14 00:37:06;;;;;;;72.93;30.37;;;;;;;1.45;74.53;100055.81;5012253;28;20471;-78
2024/01/14 00:39:35;;;;;;;69.67;30.50;;;;;;;1.41;75.11;100058.34;5013778;28;20276;-78
2024/01/14 00:42:01;;;;;;;69.45;30.02;;;;;;;1.41;74.94;100050.56;5013844;28;20041;-78
2024/01/14 00:44:26;;;;;;;70.87;29.63;;;;;;;1.39;75.46;100047.03;5013574;28;20034;-77
2024/01/14 00:46:52;;;;;;;67.13;28.57;;;;;;;1.38;74.94;100037.50;5006710;28;20038;-78
2024/01/14 00:49:17;;;;;;;69.13;29.95;;;;;;;1.39;75.67;100044.44;4993933;28;20509;-79
2024/01/14 00:51:43;;;;;;;73.90;30.97;;;;;;;1.38;74.85;100039.19;4993404;28;20046;-78
2024/01/14 00:54:08;;;;;;;64.13;28.43;;;;;;;1.34;75.10;100035.66;4993926;28;20034;-78
2024/01/14 00:56:33;;;;;;;67.93;30.57;;;;;;;1.35;75.23;100032.22;4993961;28;20549;-78
2024/01/14 00:58:59;;;;;;;68.80;30.07;;;;;;;1.35;75.22;100024.44;4993733;28;20046;-78
2024/01/14 01:01:24;;;;;;;73.45;29.58;;;;;;;1.37;75.68;100021.88;4993896;28;20046;-78
2024/01/14 01:03:49;;;;;;;67.63;26.67;;;;;;;1.38;75.37;100018.44;5007582;28;20422;-77
2024/01/14 01:06:15;;;;;;;60.17;25.97;;;;;;;1.38;74.70;100014.13;5000010;28;20072;-77
2024/01/14 01:08:40;;;;;;;62.83;25.73;;;;;;;1.39;75.21;100008.13;4976088;28;20026;-78
2024/01/14 01:11:09;;;;;;;60.93;25.13;;;;;;;1.39;74.93;100013.31;4993624;28;20458;-78
2024/01/14 01:13:34;;;;;;;54.60;23.02;;;;;;;1.39;74.67;100005.53;4991658;28;20041;-77
2024/01/14 01:15:59;;;;;;;53.90;23.60;;;;;;;1.40;75.62;100006.38;4966710;28;20038;-78
2024/01/14 01:18:25;;;;;;;58.28;23.92;;;;;;;1.39;74.95;100005.53;4992308;28;20490;-79
2024/01/14 01:20:51;;;;;;;52.63;24.07;;;;;;;1.40;74.88;99999.50;4990978;28;20442;-79
2024/01/14 01:23:17;;;;;;;51.70;23.50;;;;;;;1.39;75.43;100000.34;4991787;28;20026;-79
2024/01/14 01:25:42;;;;;;;47.33;22.13;;;;;;;1.37;74.78;99999.41;5002390;28;20038;-78
2024/01/14 01:28:09;;;;;;;46.03;21.90;;;;;;;1.38;74.98;99992.50;4993116;28;20149;-79
2024/01/14 01:30:35;;;;;;;46.42;20.85;;;;;;;1.40;75.84;99998.59;4992805;28;20034;-79
2024/01/14 01:33:00;;;;;;;47.30;21.70;;;;;;;1.40;75.02;100003.78;4993229;28;20042;-78
2024/01/14 01:35:25;;;;;;;46.97;21.10;;;;;;;1.39;74.95;100002.94;4993141;28;20763;-79
2024/01/14 01:37:51;;;;;;;52.33;21.37;;;;;;;1.39;74.94;99995.13;4992775;28;20030;-78
2024/01/14 01:40:16;;;;;;;42.63;19.57;;;;;;;1.40;75.27;99996.00;4992843;28;20022;-78
2024/01/14 01:42:41;;;;;;;39.77;19.00;;;;;;;1.39;75.11;100000.34;4993245;28;20117;-78
2024/01/14 01:45:07;;;;;;;43.00;20.07;;;;;;;1.38;75.78;99982.13;4993064;28;20112;-78
2024/01/14 01:47:33;;;;;;;43.30;18.88;;;;;;;1.36;76.11;99969.13;4992582;28;20057;-78
2024/01/14 01:49:59;;;;;;;45.47;19.50;;;;;;;1.36;75.26;99969.13;4992854;28;20037;-79
2024/01/14 01:52:26;;;;;;;44.40;19.10;;;;;;;1.36;75.22;99963.94;5011844;28;20040;-78
2024/01/14 01:54:52;;;;;;;46.90;19.77;;;;;;;1.35;74.97;99964.75;5012326;28;20057;-80
2024/01/14 01:57:18;;;;;;;40.30;17.83;;;;;;;1.35;75.31;99969.94;5012581;28;20030;-80
2024/01/14 01:59:45;;;;;;;45.00;18.90;;;;;;;1.35;75.09;99966.47;5012153;28;20464;-79
2024/01/14 02:02:12;;;;;;;44.53;18.90;;;;;;;1.33;75.41;99962.94;5011636;28;20030;-79
2024/01/14 02:04:37;;;;;;;44.83;18.70;;;;;;;1.30;75.09;99971.50;4992705;28;20116;-80
2024/01/14 02:07:04;;;;;;;48.72;19.15;;;;;;;1.29;76.08;99970.66;4992544;28;20546;-80
2024/01/14 02:09:29;;;;;;;45.83;19.37;;;;;;;1.29;75.38;99980.13;4992467;28;20054;-80
2024/01/14 02:11:55;;;;;;;43.25;19.60;;;;;;;1.31;75.86;99985.38;4992409;28;20116;-80
2024/01/14 02:14:20;;;;;;;41.00;19.00;;;;;;;1.30;75.57;99984.47;4992260;28;20169;-80
2024/01/14 02:16:45;;;;;;;43.20;18.47;;;;;;;1.28;75.60;99981.84;4992448;28;20034;-80
2024/01/14 02:19:11;;;;;;;41.10;18.70;;;;;;;1.29;76.04;99978.44;4992417;28;20491;-79
2024/01/14 02:21:42;;;;;;;40.75;18.48;;;;;;;1.29;76.15;99977.53;4992510;28;20447;-80
2024/01/14 02:24:14;;;;;;;45.83;19.47;;;;;;;1.28;75.80;99983.56;4995066;28;20061;-79
2024/01/14 02:26:39;;;;;;;45.80;19.27;;;;;;;1.26;76.20;99987.81;4997448;28;20023;-79
2024/01/14 02:29:07;;;;;;;41.67;19.50;;;;;;;1.25;76.04;99996.44;4991802;28;20034;-79
2024/01/14 02:31:32;;;;;;;47.85;22.15;;;;;;;1.22;75.69;100001.53;4992128;28;20117;-80
2024/01/14 02:33:58;;;;;;;46.87;21.37;;;;;;;1.14;75.25;99994.44;4992095;28;20113;-79
2024/01/14 02:36:24;;;;;;;46.53;21.58;;;;;;;1.12;76.26;100000.38;5004217;28;20613;-80
2024/01/14 02:38:49;;;;;;;50.25;22.08;;;;;;;1.13;75.62;100003.03;5011650;28;20034;-80
2024/01/14 02:41:14;;;;;;;48.20;21.53;;;;;;;1.12;76.32;100006.47;5011609;28;20113;-80
2024/01/14 02:43:40;;;;;;;50.17;21.87;;;;;;;1.15;75.64;99990.09;5006763;28;20026;-78
2024/01/14 02:46:05;;;;;;;49.83;21.83;;;;;;;1.14;76.10;99990.94;4991586;28;20058;-80
2024/01/14 02:48:31;;;;;;;51.77;22.33;;;;;;;1.13;76.41;99990.06;4991754;28;20026;-79
2024/01/14 02:50:56;;;;;;;47.33;22.77;;;;;;;1.14;76.07;99984.06;4990678;28;20050;-80
2024/01/14 02:53:22;;;;;;;47.70;21.77;;;;;;;1.14;76.03;99978.88;4991858;28;20030;-80
2024/01/14 02:55:47;;;;;;;49.60;21.40;;;;;;;1.16;75.57;99970.25;4991654;28;20160;-78
2024/01/14 02:58:12;;;;;;;48.27;21.40;;;;;;;1.14;75.99;99968.50;4991733;28;20023;-77
2024/01/14 03:00:38;;;;;;;44.83;20.80;;;;;;;1.13;76.39;99971.91;4991416;28;20113;-81
2024/01/14 03:03:03;;;;;;;44.10;20.60;;;;;;;1.11;76.06;99965.81;4999149;28;20264;-80
2024/01/14 03:05:29;;;;;;;47.67;21.03;;;;;;;1.11;75.67;99965.81;5010459;28;20108;-80
2024/01/14 03:07:54;;;;;;;46.50;22.07;;;;;;;1.12;75.61;99970.16;5010998;28;20032;-80
2024/01/14 03:10:19;;;;;;;48.05;21.88;;;;;;;1.09;76.17;99967.47;5010728;28;20028;-79
2024/01/14 03:12:45;;;;;;;46.20;21.80;;;;;;;1.07;75.64;99971.72;5000719;28;20114;-79
2024/01/14 03:15:10;;;;;;;45.13;21.17;;;;;;;1.04;75.75;99966.44;4991291;28;20157;-80
2024/01/14 03:17:36;;;;;;;48.73;21.10;;;;;;;1.03;76.58;99962.09;4991283;28;20030;-79
2024/01/14 03:20:02;;;;;;;48.38;22.77;;;;;;;1.04;76.27;99966.44;4991330;28;20017;-80
2024/01/14 03:22:27;;;;;;;49.43;22.60;;;;;;;1.01;76.41;99961.16;4991332;28;20588;-79
2024/01/14 03:24:53;;;;;;;45.08;20.77;;;;;;;0.98;76.58;99972.34;5000315;28;20026;-78
2024/01/14 03:27:18;;;;;;;44.80;19.93;;;;;;;0.99;76.00;99973.22;4991171;28;20103;-79
2024/01/14 03:29:43;;;;;;;44.80;18.87;;;;;;;1.00;76.56;99969.78;4990829;28;20034;-80
2024/01/14 03:32:09;;;;;;;42.17;19.60;;;;;;;1.00;75.92;99964.59;4990847;28;20483;-80
2024/01/14 03:34:36;;;;;;;43.67;19.53;;;;;;;1.00;76.04;99962.00;4990911;28;20522;-79
2024/01/14 03:37:02;;;;;;;48.27;20.60;;;;;;;1.02;76.38;99962.06;5010745;28;20714;-80
2024/01/14 03:39:27;;;;;;;46.00;19.90;;;;;;;1.02;75.81;99947.38;5009734;28;20061;-80
2024/01/14 03:41:53;;;;;;;38.27;17.87;;;;;;;1.02;76.27;99962.94;4998713;28;20034;-79
2024/01/14 03:44:21;;;;;;;41.47;18.77;;;;;;;1.04;76.31;99966.44;5010340;28;20049;-80
2024/01/14 03:46:46;;;;;;;37.50;18.98;;;;;;;1.05;76.38;99955.22;5003990;28;20026;-79
2024/01/14 03:49:12;;;;;;;42.03;19.80;;;;;;;1.06;76.59;99962.19;4990679;28;20027;-79
2024/01/14 03:51:37;;;;;;;44.40;20.00;;;;;;;1.08;76.26;99962.22;4990543;28;20026;-80
2024/01/14 03:54:03;;;;;;;40.45;19.67;;;;;;;1.06;76.46;99962.19;4973177;28;20078;-80
2024/01/14 03:56:28;;;;;;;43.30;18.77;;;;;;;1.05;76.47;99947.44;4990748;28;20463;-80
2024/01/14 03:58:54;;;;;;;44.70;19.43;;;;;;;1.03;76.34;99963.81;4990534;28;20070;-80
2024/01/14 04:01:19;;;;;;;41.90;19.50;;;;;;;1.01;76.66;99955.97;4990324;28;20026;-80
2024/01/14 04:03:45;;;;;;;39.20;18.17;;;;;;;1.02;76.76;99962.94;5003820;28;20101;-80
2024/01/14 04:06:10;;;;;;;41.10;18.63;;;;;;;1.03;76.00;99963.81;5010151;28;20092;-79
2024/01/14 04:08:35;;;;;;;38.27;18.07;;;;;;;1.03;76.14;99969.88;5003192;28;20030;-80
2024/01/14 04:11:01;;;;;;;36.70;16.70;;;;;;;1.01;76.76;99963.75;4990303;28;20038;-79
2024/01/14 04:13:26;;;;;;;39.28;16.65;;;;;;;1.01;77.15;99976.72;4990296;28;20118;-79
2024/01/14 04:15:56;;;;;;;34.27;15.90;;;;;;;1.02;76.45;99965.53;4990159;28;20598;-79
2024/01/14 04:18:22;;;;;;;36.95;16.25;;;;;;;1.02;76.65;99959.47;4990310;28;20545;-80
2024/01/14 04:20:47;;;;;;;34.00;16.23;;;;;;;1.01;76.52;99950.78;4990357;28;20030;-80
2024/01/14 04:23:12;;;;;;;33.87;15.40;;;;;;;1.02;76.30;99947.38;4990395;28;20031;-80
2024/01/14 04:25:38;;;;;;;32.73;14.90;;;;;;;1.02;76.64;99947.38;4999361;28;20069;-79
2024/01/14 04:28:03;;;;;;;35.75;14.95;;;;;;;1.03;76.20;99943.94;4990274;28;20403;-79
2024/01/14 04:30:29;;;;;;;31.67;13.53;;;;;;;1.05;76.51;99946.59;4989896;28;20113;-80
2024/01/14 04:32:54;;;;;;;29.07;13.37;;;;;;;1.03;77.42;99938.75;4990151;28;20034;-80
2024/01/14 04:35:19;;;;;;;27.13;11.90;;;;;;;1.05;77.21;99942.28;4990183;28;20041;-80
2024/01/14 04:37:45;;;;;;;25.60;11.97;;;;;;;1.06;77.40;99938.84;4990110;28;20058;-79
2024/01/14 04:40:10;;;;;;;25.57;11.53;;;;;;;1.07;77.08;99950.97;4990307;28;20278;-80
2024/01/14 04:42:36;;;;;;;25.67;12.37;;;;;;;1.09;77.01;99954.50;4990170;28;20528;-80
2024/01/14 04:45:01;;;;;;;27.50;13.27;;;;;;;1.07;78.99;99948.38;4989973;28;20033;-80
2024/01/14 04:47:26;;;;;;;25.15;11.32;;;;;;;1.10;78.49;99945.91;4989948;28;20038;-77
2024/01/14 04:49:52;;;;;;;29.97;12.50;;;;;;;1.13;78.26;99951.16;4994850;28;20406;-78
2024/01/14 04:52:17;;;;;;;29.43;12.83;;;;;;;1.14;79.82;99941.66;5005027;28;20033;-78
2024/01/14 04:54:42;;;;;;;28.57;11.63;;;;;;;1.19;78.80;99949.59;4990140;28;20042;-78
2024/01/14 04:57:08;;;;;;;25.67;11.37;;;;;;;1.21;78.88;99947.91;4990273;28;20575;-77
2024/01/14 04:59:34;;;;;;;24.77;11.18;;;;;;;1.25;78.82;99940.28;4989845;28;20069;-78
2024/01/14 05:01:59;;;;;;;26.67;12.17;;;;;;;1.28;79.30;99934.28;4990164;28;20026;-77
2024/01/14 05:04:24;;;;;;;21.57;10.80;;;;;;;1.32;79.42;99924.88;5005131;28;20041;-77
2024/01/14 05:06:50;;;;;;;25.10;11.67;;;;;;;1.35;79.76;99936.22;4989984;28;20037;-78
2024/01/14 05:09:15;;;;;;;24.27;11.43;;;;;;;1.40;79.25;99933.75;4989891;28;20117;-79
2024/01/14 05:11:40;;;;;;;28.03;11.47;;;;;;;1.43;79.67;99923.44;4989781;28;20038;-78
2024/01/14 05:14:06;;;;;;;26.43;12.23;;;;;;;1.47;79.75;99927.00;4991323;28;20030;-78
2024/01/14 05:16:31;;;;;;;23.47;11.10;;;;;;;1.49;79.87;99930.53;4993673;28;20208;-79
2024/01/14 05:18:56;;;;;;;26.07;11.30;;;;;;;1.50;80.00;99934.88;4993598;28;20073;-80
2024/01/14 05:21:22;;;;;;;22.80;10.68;;;;;;;1.52;79.88;99935.78;4994437;28;20525;-77
2024/01/14 05:23:47;;;;;;;22.80;10.23;;;;;;;1.55;79.90;99930.69;4993517;28;20058;-78
2024/01/14 05:26:13;;;;;;;23.07;10.37;;;;;;;1.57;80.04;99926.44;5002213;28;20106;-78
2024/01/14 05:28:38;;;;;;;24.80;9.77;;;;;;;1.58;79.57;99923.00;4993209;28;20030;-78
2024/01/14 05:31:03;;;;;;;22.93;10.57;;;;;;;1.62;79.18;99934.31;4992859;28;20105;-77
2024/01/14 05:33:29;;;;;;;23.85;10.68;;;;;;;1.63;79.07;99931.78;4993029;28;20113;-78
2024/01/14 05:35:54;;;;;;;21.27;9.43;;;;;;;1.63;79.01;99921.41;4993191;28;20529;-77
2024/01/14 05:38:20;;;;;;;21.70;9.40;;;;;;;1.65;79.81;99919.72;4993288;28;20669;-77
2024/01/14 05:40:45;;;;;;;21.63;10.50;;;;;;;1.67;78.93;99923.25;4993280;28;20027;-78
2024/01/14 05:43:10;;;;;;;23.85;10.68;;;;;;;1.67;80.97;99918.03;4993115;28;20034;-77
2024/01/14 05:45:36;;;;;;;22.57;9.70;;;;;;;1.69;80.53;99921.56;4992981;28;20038;-77
2024/01/14 05:48:01;;;;;;;22.10;10.03;;;;;;;1.70;80.04;99928.50;4992842;28;20026;-78
2024/01/14 05:50:27;;;;;;;21.90;10.67;;;;;;;1.69;81.11;99937.13;4992451;28;20105;-79
2024/01/14 05:52:52;;;;;;;21.23;10.13;;;;;;;1.69;81.03;99929.34;4975395;28;20121;-78
2024/01/14 05:55:18;;;;;;;20.33;9.45;;;;;;;1.69;80.21;99926.75;4992898;28;20038;-78
2024/01/14 05:57:43;;;;;;;21.60;8.93;;;;;;;1.71;80.43;99939.78;4993079;28;20034;-77
2024/01/14 06:00:09;;;;;;;22.40;9.30;;;;;;;1.73;80.82;99940.69;4992511;28;20054;-78
2024/01/14 06:02:34;;;;;;;17.65;8.07;;;;;;;1.73;80.37;99932.91;4996348;28;20022;-78
2024/01/14 06:05:00;;;;;;;20.17;8.53;;;;;;;1.76;80.75;99929.50;5012380;28;20029;-77
2024/01/14 06:07:25;;;;;;;19.67;8.50;;;;;;;1.76;81.05;99940.78;5012328;28;20026;-78
2024/01/14 06:09:51;;;;;;;18.67;8.20;;;;;;;1.79;80.64;99942.56;5012110;28;20389;-76
2024/01/14 06:12:16;;;;;;;20.40;9.13;;;;;;;1.81;81.45;99946.06;5012038;28;20280;-77
2024/01/14 06:14:42;;;;;;;18.63;8.10;;;;;;;1.83;80.63;99939.22;5011699;28;20519;-77
2024/01/14 06:17:08;;;;;;;19.83;9.07;;;;;;;1.86;80.56;99944.50;5012076;28;20033;-76
2024/01/14 06:19:34;;;;;;;21.30;8.75;;;;;;;1.87;80.31;99941.06;5011481;28;20034;-77
2024/01/14 06:22:00;;;;;;;19.52;9.73;;;;;;;1.87;81.08;99930.66;5011867;28;20033;-77
2024/01/14 06:24:26;;;;;;;21.67;8.93;;;;;;;1.92;80.74;99934.25;5010151;28;20061;-77
2024/01/14 06:26:52;;;;;;;18.42;8.50;;;;;;;1.93;80.75;99932.53;4996016;28;20033;-78
2024/01/14 06:29:17;;;;;;;20.98;8.90;;;;;;;1.94;81.01;99935.19;4991716;28;20101;-78
2024/01/14 06:31:44;;;;;;;18.97;8.47;;;;;;;1.96;80.72;99938.69;4991966;28;20434;-77
2024/01/14 06:34:10;;;;;;;19.48;8.82;;;;;;;1.97;81.07;99935.25;4992004;28;20049;-77
2024/01/14 06:36:35;;;;;;;18.63;8.00;;;;;;;1.99;80.08;99935.31;4974559;28;20068;-78
2024/01/14 06:39:01;;;;;;;20.10;8.13;;;;;;;2.00;80.97;99937.91;4992144;28;20030;-77
2024/01/14 06:41:28;;;;;;;18.10;8.20;;;;;;;2.02;80.56;99940.56;4992080;28;20065;-77
2024/01/14 06:43:53;;;;;;;18.48;7.70;;;;;;;2.02;80.83;99935.38;4990568;28;20474;-77
2024/01/14 06:46:18;;;;;;;17.93;7.63;;;;;;;2.03;80.08;99938.84;4991808;28;20034;-78
2024/01/14 06:48:44;;;;;;;20.93;9.17;;;;;;;2.04;80.88;99928.50;4991787;28;20034;-78
2024/01/14 06:51:09;;;;;;;18.23;7.80;;;;;;;2.05;80.35;99934.56;5006864;28;20022;-80
2024/01/14 06:53:35;;;;;;;19.02;8.77;;;;;;;2.08;80.68;99929.47;5011137;28;20524;-78
2024/01/14 06:56:02;;;;;;;19.43;8.07;;;;;;;2.09;80.87;99923.44;5011338;28;20033;-78
2024/01/14 06:58:28;;;;;;;18.05;8.90;;;;;;;2.10;80.69;99928.66;4995147;28;20030;-79
2024/01/14 07:00:53;;;;;;;20.30;9.20;;;;;;;2.11;80.83;99924.34;4991676;28;20082;-78
2024/01/14 07:03:19;;;;;;;20.92;9.43;;;;;;;2.13;80.84;99927.84;5001391;28;20104;-75
2024/01/14 07:05:44;;;;;;;20.60;8.33;;;;;;;2.14;80.02;99927.00;5011145;28;20049;-77
2024/01/14 07:08:09;;;;;;;20.60;8.40;;;;;;;2.15;80.13;99926.16;5011008;28;20033;-75
2024/01/14 07:10:35;;;;;;;18.40;8.23;;;;;;;2.17;80.20;99929.69;5010755;28;20099;-76
2024/01/14 07:13:00;;;;;;;20.50;9.07;;;;;;;2.19;80.78;99933.19;5011028;28;20029;-77
2024/01/14 07:15:26;;;;;;;20.27;9.03;;;;;;;2.22;80.48;99935.00;5010091;28;20034;-79
2024/01/14 07:17:51;;;;;;;17.20;7.80;;;;;;;2.24;80.34;99921.19;5010926;28;20109;-77
2024/01/14 07:20:17;;;;;;;20.73;8.53;;;;;;;2.24;80.09;99921.19;5011012;28;20130;-80
2024/01/14 07:22:42;;;;;;;17.00;8.27;;;;;;;2.26;80.53;99919.50;5010821;28;20052;-78
2024/01/14 07:25:10;;;;;;;18.48;8.25;;;;;;;2.25;79.79;99904.75;5002527;28;20026;-79
2024/01/14 07:27:36;;;;;;;21.60;8.75;;;;;;;2.27;80.07;99905.66;4991137;28;20514;-79
2024/01/14 07:30:02;;;;;;;16.70;7.90;;;;;;;2.27;79.95;99908.25;4990858;28;20026;-77
2024/01/14 07:32:27;;;;;;;18.77;8.63;;;;;;;2.26;79.81;99898.72;4990842;28;20161;-79
2024/01/14 07:34:52;;;;;;;18.20;7.83;;;;;;;2.24;79.94;99897.81;4991653;28;20128;-80
2024/01/14 07:37:18;;;;;;;19.03;8.97;;;;;;;2.24;80.42;99907.34;5005754;28;20486;-78
2024/01/14 07:39:43;;;;;;;18.98;8.77;;;;;;;2.24;80.47;99916.00;5009375;28;20030;-79
2024/01/14 07:42:09;;;;;;;17.60;7.90;;;;;;;2.24;79.82;99916.00;5007148;28;20121;-78
2024/01/14 07:44:35;;;;;;;17.95;8.93;;;;;;;2.26;79.97;99911.72;4993713;28;20035;-79
2024/01/14 07:47:00;;;;;;;17.17;7.80;;;;;;;2.26;80.37;99927.28;5006991;28;20026;-80
2024/01/14 07:49:25;;;;;;;18.33;7.87;;;;;;;2.29;79.91;99929.09;5002396;28;20033;-80
2024/01/14 07:51:51;;;;;;;19.73;8.00;;;;;;;2.29;79.98;99932.59;4992756;28;20166;-79
2024/01/14 07:54:16;;;;;;;17.33;7.60;;;;;;;2.31;79.78;99934.34;4995737;28;20030;-80
2024/01/14 07:56:41;;;;;;;16.52;8.10;;;;;;;2.34;79.81;99924.03;4996350;28;20422;-79
2024/01/14 07:59:07;;;;;;;18.03;7.93;;;;;;;2.36;80.17;99918.00;5005002;28;20053;-78
2024/01/14 08:01:32;;;;;;;17.90;8.20;;;;;;;2.39;80.13;99907.69;4993235;28;20109;-80
2024/01/14 08:03:58;;;;;;;18.93;8.47;;;;;;;2.42;80.24;99920.78;4996381;28;20026;-78
2024/01/14 08:06:24;;;;;;;22.00;8.67;;;;;;;2.44;80.22;99919.09;5007546;28;20034;-78
2024/01/14 08:08:50;;;;;;;17.90;7.80;;;;;;;2.49;79.64;99911.38;5000953;28;20319;-79
2024/01/14 08:11:16;;;;;;;18.52;7.95;;;;;;;2.52;79.99;99906.25;5006959;28;20033;-80
2024/01/14 08:13:42;;;;;;;19.40;7.72;;;;;;;2.56;79.51;99913.28;4995083;28;20379;-78
2024/01/14 08:16:07;;;;;;;23.07;9.27;;;;;;;2.60;79.21;99916.81;5002503;28;20037;-79
2024/01/14 08:18:33;;;;;;;21.87;9.67;;;;;;;2.65;79.91;99922.13;4990154;28;20485;-80
2024/01/14 08:20:59;;;;;;;23.77;8.88;;;;;;;2.66;79.92;99916.09;4992054;28;20026;-80
2024/01/14 08:23:25;;;;;;;17.88;8.30;;;;;;;2.70;79.36;99915.31;5005239;28;20517;-79
2024/01/14 08:25:50;;;;;;;20.10;8.07;;;;;;;2.73;79.50;99920.56;4993343;28;20050;-78
2024/01/14 08:28:16;;;;;;;23.90;9.97;;;;;;;2.77;79.43;99912.00;4989995;28;20026;-79
2024/01/14 08:30:41;;;;;;;21.83;9.67;;;;;;;2.80;79.25;99908.59;4991880;28;20105;-81
2024/01/14 08:33:06;;;;;;;25.43;11.20;;;;;;;2.83;79.14;99906.94;4990110;28;20030;-79
2024/01/14 08:35:32;;;;;;;22.00;9.77;;;;;;;2.88;79.56;99896.63;4996042;28;20296;-79
2024/01/14 08:37:57;;;;;;;17.10;7.87;;;;;;;2.92;79.45;99908.88;5006014;28;20021;-79
2024/01/14 08:40:23;;;;;;;20.90;8.60;;;;;;;2.98;79.00;99918.50;4998437;28;20049;-79
2024/01/14 08:42:48;;;;;;;19.65;8.27;;;;;;;3.01;79.50;99926.38;4991984;28;20367;-81
2024/01/14 08:45:16;;;;;;;18.20;7.53;;;;;;;3.05;79.41;99930.81;4997879;28;20067;-82
2024/01/14 08:47:41;;;;;;;16.25;7.60;;;;;;;3.09;79.52;99919.63;4991679;28;20030;-78
2024/01/14 08:50:09;;;;;;;17.33;8.30;;;;;;;3.12;79.19;99908.38;5000981;28;20091;-80
2024/01/14 08:52:36;;;;;;;28.20;11.77;;;;;;;3.14;79.61;99912.78;4997565;28;20097;-81
2024/01/14 08:55:02;;;;;;;26.50;12.15;;;;;;;3.21;79.34;99907.69;4995867;28;20030;-79
2024/01/14 08:57:27;;;;;;;22.88;10.68;;;;;;;3.26;79.30;99926.91;4988493;28;20030;-80
2024/01/14 08:59:53;;;;;;;25.60;11.47;;;;;;;3.29;79.17;99930.41;5002551;28;20041;-80
2024/01/14 09:02:18;;;;;;;24.00;10.90;;;;;;;3.35;78.96;99920.97;5001186;28;20133;-81
2024/01/14 09:04:44;;;;;;;22.47;10.33;;;;;;;3.39;79.18;99920.22;4995449;28;20054;-81
2024/01/14 09:07:09;;;;;;;22.33;9.57;;;;;;;3.42;79.46;99913.31;4992900;28;20031;-81
2024/01/14 09:09:34;;;;;;;25.75;10.95;;;;;;;3.49;79.27;99918.63;5001895;28;21118;-80
2024/01/14 09:12:00;;;;;;;23.47;11.47;;;;;;;3.54;79.17;99917.03;4993951;28;20035;-82
2024/01/14 09:14:25;;;;;;;22.07;10.10;;;;;;;3.61;79.19;99912.78;5003158;28;20545;-80
2024/01/14 09:16:51;;;;;;;19.20;8.73;;;;;;;3.66;78.96;99906.81;4999178;28;20034;-80
2024/01/14 09:19:16;;;;;;;22.50;9.07;;;;;;;3.71;79.18;99899.09;4996137;28;20498;-81
2024/01/14 09:21:41;;;;;;;17.47;9.00;;;;;;;3.76;78.95;99904.41;5006197;28;20030;-84
2024/01/14 09:24:08;;;;;;;20.50;10.00;;;;;;;3.80;79.29;99904.47;5007262;28;20064;-84
2024/01/14 09:26:33;;;;;;;21.58;9.85;;;;;;;3.85;79.27;99907.16;5001314;28;20065;-82
2024/01/14 09:28:58;;;;;;;22.40;10.10;;;;;;;3.90;79.02;99918.53;4992744;28;20333;-84
2024/01/14 09:31:24;;;;;;;20.97;10.23;;;;;;;3.95;79.22;99919.47;4996508;28;20399;-84
2024/01/14 09:33:49;;;;;;;21.33;9.60;;;;;;;4.00;78.94;99916.97;4993220;28;20022;-83
2024/01/14 09:36:18;;;;;;;27.75;14.55;;;;;;;4.05;79.41;99915.31;4993099;28;20073;-83
2024/01/14 09:38:44;;;;;;;35.60;23.77;;;;;;;4.10;79.19;99915.38;5005223;28;20034;-81
2024/01/14 09:41:16;;;;;;;41.58;22.95;;;;;;;4.17;79.15;99914.63;5006297;28;20056;-81
2024/01/14 09:43:48;;;;;;;30.27;15.53;;;;;;;4.23;79.01;99922.56;4994437;28;20041;-83
2024/01/14 09:46:13;;;;;;;32.53;15.25;;;;;;;4.29;78.73;99922.66;4992612;28;20030;-83
2024/01/14 09:48:39;;;;;;;36.30;15.17;;;;;;;4.37;79.34;99919.28;4991018;28;20453;-83
2024/01/14 09:51:06;;;;;;;34.67;16.43;;;;;;;4.45;79.19;99915.06;4994544;28;20285;-83
2024/01/14 09:53:32;;;;;;;30.35;14.70;;;;;;;4.52;78.96;99914.31;4991388;28;20035;-82
2024/01/14 09:56:02;;;;;;;31.93;13.87;;;;;;;4.61;78.75;99913.59;4998650;28;20501;-83
2024/01/14 09:58:27;;;;;;;29.52;12.70;;;;;;;4.69;78.79;99918.88;5008115;28;20026;-83
2024/01/14 10:00:55;;;;;;;26.77;12.55;;;;;;;4.78;78.83;99911.22;4990163;28;20050;-83
2024/01/14 10:03:20;;;;;;;25.40;12.68;;;;;;;4.85;78.95;99907.81;5000767;28;20046;-82
2024/01/14 10:05:47;;;;;;;26.53;12.37;;;;;;;4.94;78.79;99899.25;5000697;28;20034;-82
2024/01/14 10:08:12;;;;;;;33.45;13.52;;;;;;;5.01;78.92;99900.19;5002798;28;20031;-81
2024/01/14 10:10:38;;;;;;;32.30;16.57;;;;;;;5.08;78.34;99896.81;4988291;28;20057;-80
2024/01/14 10:13:04;;;;;;;26.42;13.75;;;;;;;5.16;78.74;99915.16;4993677;28;20023;-82
2024/01/14 10:15:33;;;;;;;30.02;14.93;;;;;;;5.21;78.76;99902.19;4998485;28;20042;-81
2024/01/14 10:17:58;;;;;;;27.13;14.23;;;;;;;5.27;78.85;99902.25;4992992;28;20034;-80
2024/01/14 10:20:23;;;;;;;31.27;14.30;;;;;;;5.34;78.58;99906.69;4991174;28;20030;-82
2024/01/14 10:22:50;;;;;;;29.47;13.67;;;;;;;5.40;79.02;99893.69;4990754;28;20052;-84
2024/01/14 10:25:15;;;;;;;26.83;12.52;;;;;;;5.50;78.68;99893.81;5001825;28;20018;-82
2024/01/14 10:27:42;;;;;;;30.17;13.37;;;;;;;5.59;78.88;99883.44;5009691;28;20049;-82
2024/01/14 10:30:11;;;;;;;28.17;13.48;;;;;;;5.67;78.87;99884.41;5002209;28;20085;-80
2024/01/14 10:32:36;;;;;;;30.90;15.00;;;;;;;5.73;79.49;99884.47;4989685;28;20066;-78
2024/01/14 10:35:13;;;;;;;33.73;18.23;;;;;;;5.79;79.77;99888.88;5001686;28;20069;-78
2024/01/14 10:37:39;;;;;;;31.75;16.23;;;;;;;5.87;79.20;99883.69;4994678;28;20073;-78
2024/01/14 10:40:07;;;;;;;29.70;14.48;;;;;;;5.97;79.27;99885.53;4999914;28;20386;-78
2024/01/14 10:42:35;;;;;;;26.93;14.17;;;;;;;6.07;78.98;99885.63;4998125;28;20042;-78
2024/01/14 10:45:00;;;;;;;30.90;14.52;;;;;;;6.15;78.94;99884.84;4992702;28;20616;-79
2024/01/14 10:47:29;;;;;;;31.93;15.23;;;;;;;6.28;79.23;99885.81;5002139;28;20059;-80
2024/01/14 10:49:59;;;;;;;30.38;14.40;;;;;;;6.41;79.43;99871.06;5002686;28;20666;-78
2024/01/14 10:52:26;;;;;;;32.75;16.05;;;;;;;6.57;79.16;99866.81;4993191;28;20038;-80
2024/01/14 10:54:55;;;;;;;35.28;16.42;;;;;;;6.74;78.61;99866.03;4991507;28;20529;-82
2024/01/14 10:57:29;;;;;;;37.10;17.08;;;;;;;6.94;78.94;99858.28;4992033;28;20041;-79
2024/01/14 11:00:00;;;;;;;28.87;14.60;;;;;;;7.10;78.86;99843.50;4985967;28;20169;-80
2024/01/14 11:02:28;;;;;;;34.42;15.48;;;;;;;7.29;78.27;99838.31;5000882;28;20107;-80
2024/01/14 11:04:54;;;;;;;32.10;15.45;;;;;;;7.49;78.50;99833.13;4995964;28;20121;-81
2024/01/14 11:07:22;;;;;;;33.60;16.13;;;;;;;7.64;78.21;99828.75;4991632;28;20593;-81
2024/01/14 11:09:50;;;;;;;32.53;14.03;;;;;;;7.76;78.21;99831.41;4994729;28;20293;-85
2024/01/14 11:12:18;;;;;;;32.92;13.30;;;;;;;7.84;78.36;99818.31;4989077;28;20164;-77
2024/01/14 11:14:58;;;;;;;29.77;13.50;;;;;;;7.87;78.26;99818.31;4990101;28;20494;-82
2024/01/14 11:17:47;;;;;;;27.85;13.25;;;;;;;7.91;78.45;99809.56;4992715;28;20030;-83
2024/01/14 11:20:18;;;;;;;29.85;13.70;;;;;;;7.95;78.60;99795.56;4989875;28;20522;-82